Terminal Aerodrome Forecast
Issued by NWS

Home | Current Version | Previous Version | Text Only | Print | Product List | Glossary Off
Versions: 1 2 3 4 5 6 7 8 9 10 11 12 13 14

000
FTUS43 KGRB 280500
TAFMTW
TAF
KMTW 280520Z 2806/2906 21007KT 6SM BR VCSH SCT025 OVC040
      TEMPO 2806/2808 4SM -SHRA BR BKN025
     FM280800 26011G18KT P6SM SCT025 BKN040
     FM281500 25017G27KT P6SM SCT035 BKN050
     FM290000 26014G22KT P6SM OVC035=

USA.gov is the U.S. government's official web portal to all federal, state and local government web resources and services.